Tiempo atmosférico en la estación meteorológica de Renteria, Gipuzkoa (165 m.)



Fecha
DESCASC
Temp. máxima en grados centígrados (hora)
DESCASC
Temp. mínima en grados centígrados (hora)
DESCASC
Temp. media en grados centígrados
DESCASC
Racha de viento máxima en m/sg (hora)
DESCASC
Velocidad máxima media en intervalos de 10 minutos(hora)
DESCASC
Precipitaciones diarias en mm
DESCASC
Precipitaciones de 00:00 a 06:00 en mm
DESCASC
Precipitaciones de 06:00 a 12:00 en mm
DESCASC
Precipitaciones de 12:00 a 18:00 en mm
DESCASC
Precipitaciones de 18:00 a 24:00 en mm
DESCASC
17-02-2019 22 (14:40) 14.8 (06:50) 18.4 15.83 (08:50) 8.06 (03:50) 0 0 0 0 0
16-02-2019 19.4 (15:00) 5.2 (03:30) 12.3 14.72 (12:50) 7.22 (22:00) 0 0 0 0 0
15-02-2019 21.9 (15:50) 5.5 (23:50) 13.7 12.22 (01:40) 6.11 (04:30) 0 0 0 0 0
14-02-2019 19.5 (16:40) 8.7 (00:00) 14.1 15 (13:30) 8.06 (13:40) 0 0 0 0 0
13-02-2019 19 (16:20) 0.2 (00:00) 9.6 8.06 (14:30) 4.17 (14:30) 0 0 0 0 0
12-02-2019 14.5 (16:00) 2.3 (00:00) 8.4 5.56 (15:20) 3.06 (16:10) 0 0 0 0 0
11-02-2019 11.1 (14:30) 5.9 (00:00) 8.5 8.33 (02:50) 3.89 (14:50) 23.2 9.6 9.4 4.2 0
10-02-2019 15 (10:50) 8.5 (00:00) 11.8 19.17 (07:30) 11.94 (07:40) 10 0 3.4 6.6 0
09-02-2019 18.7 (14:10) 5.2 (00:00) 12 13.89 (20:00) 9.17 (20:00) 0 0 0 0 0
08-02-2019 18.8 (15:30) 2.4 (00:00) 10.6 8.06 (14:30) 4.72 (14:20) 0 0 0 0 0
07-02-2019 10.8 (16:50) 5.3 (00:00) 8.1 7.78 (13:10) 2.5 (22:40) 0.6 0 0 0.6 0
06-02-2019 19.8 (15:10) 7.5 (00:00) 13.6 4.17 (19:00) 2.78 (19:00) 0.4 0.4 0 0 0
05-02-2019 11.3 (14:30) 7.5 (00:00) 9.4 2.78 (10:30) 1.39 (08:30) 9.4 4 1 2.2 2.2
04-02-2019 12 (14:50) 0.1 (00:00) 6.1 4.44 (16:50) 1.67 (08:50) 2.4 0.6 0 0.4 1.4
03-02-2019 7.3 (15:50) 1.7 (00:00) 4.5 11.94 (00:20) 4.72 (00:50) 6.2 1.2 4 0.4 0.6
02-02-2019 8.2 (15:40) 3.7 (00:00) 5.9 -- (--) -- (--) 33.2 23.2 8.8 0.6 0.6
01-02-2019 14 (13:30) 4.9 (00:00) 9.5 16.39 (15:50) 8.89 (10:20) 6.4 1.8 0 2 2.6
31-01-2019 16.7 (16:20) 6.8 (00:00) 11.8 15.56 (13:30) 7.5 (02:30) 46.2 4.6 10.4 0.2 31
30-01-2019 10.7 (14:40) 4.4 (00:00) 7.5 11.94 (03:30) 5.56 (23:00) 16.6 5.4 9.6 0.2 1.4
29-01-2019 10 (15:20) 5.6 (00:00) 7.8 -- (--) -- (--) -- 3.4 2 -- --
28-01-2019 9.8 (11:00) 5.8 (00:00) 7.8 16.67 (15:10) 5 (12:20) 28.2 8.2 9 8 3
27-01-2019 9.2 (06:10) 4.8 (00:00) 7 14.17 (15:40) 5.83 (15:40) 23.4 3.4 7.8 4.8 7.4
26-01-2019 14.3 (16:40) 5 (00:00) 9.7 4.44 (01:30) 1.67 (00:10) 3.2 2.8 0.4 0 0
25-01-2019 10.1 (12:20) 4.7 (00:00) 7.4 9.44 (12:40) 3.89 (06:40) 64.8 6.6 24.2 18.6 15.4
24-01-2019 6.5 (01:10) 3.9 (00:00) 5.2 11.94 (00:20) 4.44 (00:40) 14.8 10.2 2 0.8 1.8
23-01-2019 10.2 (07:20) 4.4 (00:00) 7.3 22.22 (08:20) 6.67 (17:10) 68.6 13.4 24.2 15.4 15.6
22-01-2019 7 (13:10) 3.9 (00:00) 5.5 10 (13:00) 3.89 (13:00) 31.8 0.2 4 14.4 13.2
21-01-2019 7.4 (14:50) 4.6 (00:00) 6 5.83 (10:40) 2.78 (10:30) 11.2 6.6 2.6 0 2
20-01-2019 9.6 (15:20) 6 (00:00) 7.8 8.89 (18:10) 3.61 (18:10) 18.6 0.4 6.6 5.4 6.2
19-01-2019 12.1 (12:40) 4.9 (00:00) 8.5 9.72 (21:00) 5.28 (16:30) 2.2 2 0 0.2 0

Gráficas

Temp. máximas Temp. mínimas Temp. medias Precipitaciones Rachas de viento máximas Velocidades máximas media en intervalos de 10 minutos

Datos horarios

Fecha y hora oficial Temperatura (ºC) Velocidad del viento (km/h) Dirección del viento Racha (km/h) Dirección de racha Precipitación (mm) Presión (hPa) Tendencia (hPa) Humedad (%)
2019-02-17 23:00:00 15.3 10 Este 23 Nordeste 0 -- -- 23
2019-02-17 22:00:00 15.9 10 Sudeste 26 Sudeste 0 -- -- 21
2019-02-17 21:00:00 16.4 9 Sudeste 28 Sudeste 0 -- -- 21
2019-02-17 20:00:00 16.8 8 Sudeste 21 Sudeste 0 -- -- 19
2019-02-17 19:00:00 17.7 11 Sur 32 Sudeste 0 -- -- 21
2019-02-17 18:00:00 19.3 10 Sur 43 Sudeste 0 -- -- 17
2019-02-17 17:00:00 20.7 20 Sur 46 Sudeste 0 -- -- 18
2019-02-17 16:00:00 21.6 13 Sur 40 Sur 0 -- -- 18
2019-02-17 15:00:00 21.4 15 Sur 48 Sur 0 -- -- 21
2019-02-17 14:00:00 21.8 17 Sur 46 Sur 0 -- -- 18
2019-02-17 13:00:00 21 18 Sur 45 Sudeste 0 -- -- 15
2019-02-17 12:00:00 19.7 21 Sur 43 Sur 0 -- -- 17
2019-02-17 11:00:00 18 19 Sur 53 Sur 0 -- -- 16
2019-02-17 10:00:00 16.7 24 Sur 55 Sudeste 0 -- -- 13
2019-02-17 09:00:00 15.8 28 Sudeste 57 Sudeste 0 -- -- 11
2019-02-17 08:00:00 15.2 21 Sudeste 52 Sudeste 0 -- -- 11
2019-02-17 07:00:00 14.9 13 Sur 37 Sudeste 0 -- -- 13
2019-02-17 06:00:00 15.5 20 Sur 44 Sur 0 -- -- 13
2019-02-17 05:00:00 15.2 15 Sur 53 Sudeste 0 -- -- 15
2019-02-17 04:00:00 15.6 27 Sudeste 50 Sur 0 -- -- 16
2019-02-17 03:00:00 15.5 23 Sudeste 47 Sudeste 0 -- -- 19
2019-02-17 02:00:00 15.7 22 Sudeste 54 Sudeste 0 -- -- 21
2019-02-17 01:00:00 16.1 27 Sudeste 49 Sudeste 0 -- -- 20
2019-02-17 00:00:00 16.3 19 Sudeste 45 Sudeste 0 -- -- 19
2019-02-16 23:00:00 16.4 18 Sudeste 48 Sudeste 0 -- -- 17
2019-02-16 22:00:00 16.7 26 Sudeste 44 Sudeste 0 -- -- 18
2019-02-16 21:00:00 16.9 18 Sudeste 45 Sudeste 0 -- -- 19
2019-02-16 20:00:00 16.4 15 Sudeste 40 Sudeste 0 -- -- 20
2019-02-16 19:00:00 16.9 10 Sudeste 44 Sur 0 -- -- 22
2019-02-16 18:00:00 18.7 17 Sudeste 31 Sur 0 -- -- 22
2019-02-16 17:00:00 19.2 12 Sudeste 49 Este 0 -- -- 27
2019-02-16 16:00:00 18.7 16 Sudeste 45 Sudeste 0 -- -- 32
2019-02-16 15:00:00 19.4 14 Sur 44 Sur 0 -- -- 30
2019-02-16 14:00:00 18.8 18 Sur 50 Sudeste 0 -- -- 33
2019-02-16 13:00:00 18.3 21 Sur 53 Sur 0 -- -- 34
2019-02-16 12:00:00 17.3 19 Sudeste 40 Sudeste 0 -- -- 38
2019-02-16 11:00:00 16.2 22 Sudeste 43 Sudeste 0 -- -- 37
2019-02-16 10:00:00 14.5 15 Sudeste 32 Sudeste 0 -- -- 43
2019-02-16 09:00:00 7.9 4 Sudoeste 10 Sudoeste 0 -- -- 67
2019-02-16 08:00:00 7.9 2 Sudoeste 8 Norte 0 -- -- 69
2019-02-16 07:00:00 7.8 3 Noroeste 10 Noroeste 0 -- -- 70
2019-02-16 06:00:00 6.9 3 Noroeste 6 Oeste 0 -- -- 84
2019-02-16 05:00:00 6.4 2 Sur 8 Oeste 0 -- -- 80
2019-02-16 04:00:00 5.3 2 Oeste 6 Sudoeste 0 -- -- 86
2019-02-16 03:00:00 5.3 3 Noroeste 8 Norte 0 -- -- 89
2019-02-16 02:00:00 5.3 3 Noroeste 10 Noroeste 0 -- -- 83
2019-02-16 01:00:00 5.4 5 Noroeste 9 Noroeste 0 -- -- 83
2019-02-16 00:00:00 5.6 0 Calma 7 Noroeste 0 -- -- 77
2019-02-15 23:00:00 6 4 Noroeste 9 Norte 0 -- -- 77
2019-02-15 22:00:00 6.8 4 Noroeste 9 Norte 0 -- -- 69
2019-02-15 21:00:00 8.2 3 Norte 10 Norte 0 -- -- 56
2019-02-15 20:00:00 9.5 8 Noroeste 11 Noroeste 0 -- -- 57
2019-02-15 19:00:00 12.9 5 Norte 9 Noroeste 0 -- -- 41
2019-02-15 18:00:00 19.7 9 Sur 15 Sudoeste 0 -- -- 15
2019-02-15 17:00:00 20.6 8 Sudeste 26 Sudeste 0 -- -- 15
2019-02-15 16:00:00 21.9 10 Sur 25 Sudeste 0 -- -- 14
2019-02-15 15:00:00 20.5 12 Sudeste 36 Sudeste 0 -- -- 17
2019-02-15 14:00:00 20.4 12 Sudeste 31 Sudeste 0 -- -- 16
2019-02-15 13:00:00 19.6 18 Sudeste 32 Sur 0 -- -- 15
2019-02-15 12:00:00 18.8 21 Sudeste 37 Sudeste 0 -- -- 15
2019-02-15 11:00:00 18.2 14 Sudeste 33 Este 0 -- -- 16
2019-02-15 10:00:00 17.2 16 Sudeste 35 Este 0 -- -- 17
2019-02-15 09:00:00 15.7 14 Sudeste 26 Sur 0 -- -- 18
2019-02-15 08:00:00 14.7 13 Sudeste 36 Sudeste 0 -- -- 19
2019-02-15 07:00:00 15 14 Sudeste 36 Sudeste 0 -- -- 18
2019-02-15 06:00:00 15.3 21 Sudeste 38 Sudeste 0 -- -- 19
2019-02-15 05:00:00 15.2 15 Sudeste 35 Sudeste 0 -- -- 19
2019-02-15 04:00:00 15.6 22 Sudeste 36 Sudeste 0 -- -- 20
2019-02-15 03:00:00 15.6 19 Sudeste 36 Sudeste 0 -- -- 23
2019-02-15 02:00:00 15.5 18 Sudeste 44 Este 0 -- -- 18
2019-02-15 01:00:00 15.3 14 Sudeste 35 Este 0 -- -- 19
2019-02-15 00:00:00 15.1 14 Sudeste 29 Este 0 -- -- 20
2019-02-14 23:00:00 14.9 9 Sudeste 28 Sudeste 0 -- -- 26
2019-02-14 22:00:00 15.6 15 Sudeste 24 Sudeste 0 -- -- 19
2019-02-14 21:00:00 15.8 11 Sudeste 24 Este 0 -- -- 19
2019-02-14 20:00:00 16 10 Sudeste 30 Sudeste 0 -- -- 21
2019-02-14 19:00:00 16.6 10 Este 28 Este 0 -- -- 21
2019-02-14 18:00:00 18.3 15 Sudeste 34 Sudeste 0 -- -- 24
2019-02-14 17:00:00 19.2 16 Sudeste 36 Sudeste 0 -- -- 24
2019-02-14 16:00:00 19.2 14 Sudeste 44 Sur 0 -- -- 23
2019-02-14 15:00:00 18.5 24 Sudeste 50 Sudeste 0 -- -- 23
2019-02-14 14:00:00 18 18 Sudeste 54 Este 0 -- -- 29
2019-02-14 13:00:00 17.3 23 Sudeste 49 Este 0 -- -- 28
2019-02-14 12:00:00 16.7 18 Sudeste 52 Este 0 -- -- 25
2019-02-14 11:00:00 16 19 Sudeste 48 Sudeste 0 -- -- 31
2019-02-14 10:00:00 15.3 16 Sudeste 41 Este 0 -- -- 33
2019-02-14 09:00:00 13.9 11 Sudeste 32 Este 0 -- -- 38
2019-02-14 08:00:00 13.3 10 Sudeste 26 Sudeste 0 -- -- 37
2019-02-14 07:00:00 14 12 Sudeste 27 Este 0 -- -- 32
2019-02-14 06:00:00 14.1 16 Sudeste 29 Sudeste 0 -- -- 27
2019-02-14 05:00:00 14.3 16 Sudeste 31 Sudeste 0 -- -- 31
2019-02-14 04:00:00 14.2 18 Sudeste 33 Este 0 -- -- 33
2019-02-14 03:00:00 14.2 15 Sudeste 30 Sudeste 0 -- -- 39
2019-02-14 02:00:00 14.1 14 Sudeste 28 Sudeste 0 -- -- 39
2019-02-14 01:00:00 13.1 13 Este 28 Sudeste 0 -- -- 47
2019-02-14 00:00:00 8.7 6 Norte 17 Norte 0 -- -- 72
2019-02-13 23:00:00 6 8 Noroeste 15 Noroeste 0 -- -- 93
2019-02-13 22:00:00 6.5 5 Noroeste 8 Norte 0 -- -- 90
2019-02-13 21:00:00 7.2 6 Noroeste 8 Norte 0 -- -- 88
2019-02-13 20:00:00 8.8 4 Noroeste 8 Noroeste 0 -- -- 81
2019-02-13 19:00:00 11.2 2 Noroeste 5 Noroeste 0 -- -- 65
2019-02-13 18:00:00 16.7 3 Sudoeste 16 Sur 0 -- -- 43
2019-02-13 17:00:00 18.7 7 Sur 18 Sudeste 0 -- -- 38
2019-02-13 16:00:00 18.8 9 Sudeste 27 Sudeste 0 -- -- 38
2019-02-13 15:00:00 18.4 13 Sudeste 29 Este 0 -- -- 38
2019-02-13 14:00:00 17.6 14 Sur 24 Sur 0 -- -- 41
2019-02-13 13:00:00 13.2 2 Nordeste 8 Sur 0 -- -- 62
2019-02-13 12:00:00 9 3 Noroeste 5 Noroeste 0 -- -- 78
2019-02-13 11:00:00 5.8 0 Calma 4 Nordeste 0 -- -- 98
2019-02-13 10:00:00 2.8 2 Norte 4 Nordeste 0 -- -- 100
2019-02-13 09:00:00 0.3 0 Calma 3 Sur 0 -- -- 100
2019-02-13 08:00:00 0.2 0 Calma 3 Sudoeste 0 -- -- 100
2019-02-13 07:00:00 0.4 0 Calma 3 Sudoeste 0 -- -- 100
2019-02-13 06:00:00 0.7 0 Calma 3 Sur 0 -- -- 100
2019-02-13 05:00:00 1 2 Sudoeste 4 Sudoeste 0 -- -- 100
2019-02-13 04:00:00 1.3 2 Sudoeste 4 Sudoeste 0 -- -- 100
2019-02-13 03:00:00 1.7 2 Sudoeste 5 Noroeste 0 -- -- 100
2019-02-13 02:00:00 2.2 0 Calma 5 Norte 0 -- -- 100
2019-02-13 01:00:00 2.9 0 Calma 7 Noroeste 0 -- -- 100
2019-02-13 00:00:00 3.3 2 Sudeste 6 Norte 0 -- -- 99
2019-02-12 23:00:00 4 3 Este 9 Sudeste 0 -- -- 98
2019-02-12 22:00:00 4.9 2 Noroeste 6 Noroeste 0 -- -- 97
2019-02-12 21:00:00 5.9 0 Calma 4 Sur 0 -- -- 94
2019-02-12 20:00:00 7.3 2 Noroeste 5 Norte 0 -- -- 90
2019-02-12 19:00:00 9.4 0 Calma 4 Sudoeste 0 -- -- 82
2019-02-12 18:00:00 12.9 3 Sudoeste 16 Sudoeste 0 -- -- 64
2019-02-12 17:00:00 14 8 Sudoeste 17 Sudoeste 0 -- -- 62
2019-02-12 16:00:00 14.5 7 Sudoeste 20 Oeste 0 -- -- 64
2019-02-12 15:00:00 13.5 5 Noroeste 13 Sudoeste 0 -- -- 59
2019-02-12 14:00:00 12.8 3 Noroeste 9 Oeste 0 -- -- 64
2019-02-12 13:00:00 12.1 3 Norte 5 Sur 0 -- -- 63
2019-02-12 12:00:00 10.6 3 Sudeste 6 Sudoeste 0 -- -- 86
2019-02-12 11:00:00 6.1 0 Calma 5 Sur 0 -- -- 98
2019-02-12 10:00:00 3.7 2 Sur 4 Sur 0 -- -- 100
2019-02-12 09:00:00 2.3 0 Calma 6 Sudeste 0 -- -- 100
2019-02-12 08:00:00 3 2 Sudoeste 8 Este 0 -- -- 100
2019-02-12 07:00:00 3.7 0 Calma 6 Este 0 -- -- 100
2019-02-12 06:00:00 4.6 3 Sudeste 12 Este 0 -- -- 100
2019-02-12 05:00:00 5.2 0 Calma 6 Norte 0 -- -- 100
2019-02-12 04:00:00 5.2 0 Calma 3 Sudoeste 0 -- -- 100
2019-02-12 03:00:00 5.4 0 Calma 8 Norte 0 -- -- 100
2019-02-12 02:00:00 5.5 2 Sur 4 Sudeste 0 -- -- 100
2019-02-12 01:00:00 5.8 0 Calma 5 Noroeste 0 -- -- 100
2019-02-12 00:00:00 5.9 0 Calma 5 Sur 0 -- -- 100
2019-02-11 23:00:00 6.5 0 Calma 4 Norte 0 -- -- 100
2019-02-11 22:00:00 7 0 Calma 2 Norte 0 -- -- 100
2019-02-11 21:00:00 7.6 0 Calma 4 Noroeste 0 -- -- 99
2019-02-11 20:00:00 8.1 2 Sudoeste 5 Sudoeste 0 -- -- 97
2019-02-11 19:00:00 8.7 2 Sudoeste 9 Norte 0 -- -- 91
2019-02-11 18:00:00 9.3 3 Sudoeste 13 Noroeste 0 -- -- 89
2019-02-11 17:00:00 9.4 2 Oeste 18 Norte 0 -- -- 94
2019-02-11 16:00:00 8.9 2 Sur 17 Nordeste 0.6 -- -- 96
2019-02-11 15:00:00 9.8 8 Nordeste 23 Norte 0.6 -- -- 91
2019-02-11 14:00:00 9.6 4 Sur 18 Sur 1.4 -- -- 96
2019-02-11 13:00:00 9.3 3 Oeste 13 Sur 1.6 -- -- 94
2019-02-11 12:00:00 8.6 4 Sur 18 Sur 1.2 -- -- 96
2019-02-11 11:00:00 8.2 3 Sur 9 Noroeste 1.4 -- -- 99
2019-02-11 10:00:00 7.3 2 Sur 10 Oeste 2.2 -- -- 97
2019-02-11 09:00:00 7 4 Sudoeste 12 Oeste 1 -- -- 97
2019-02-11 08:00:00 7.3 0 Calma 9 Sudoeste 1.8 -- -- 95
2019-02-11 07:00:00 7.5 9 Norte 18 Norte 1.8 -- -- 97
2019-02-11 06:00:00 7.5 2 Sudoeste 10 Oeste 0 -- -- 92
2019-02-11 05:00:00 7.3 3 Sudoeste 22 Norte 2 -- -- 93
2019-02-11 04:00:00 7.3 5 Sur 13 Nordeste 4.4 -- -- 96
2019-02-11 03:00:00 7.4 5 Sudoeste 30 Noroeste 2.8 -- -- 94
2019-02-11 02:00:00 8.1 0 Calma 10 Norte 0.4 -- -- 85
2019-02-11 01:00:00 8.3 3 Noroeste 9 Sur 0 -- -- 78
2019-02-11 00:00:00 8.5 3 Norte 9 Norte 0 -- -- 80
2019-02-10 23:00:00 8.7 0 Calma 8 Norte 0 -- -- 81
2019-02-10 22:00:00 9.1 4 Sudoeste 12 Oeste 0 -- -- 78
2019-02-10 21:00:00 9 3 Norte 13 Norte 0 -- -- 81
2019-02-10 20:00:00 8.9 5 Norte 13 Norte 0 -- -- 86
2019-02-10 19:00:00 8.7 7 Norte 14 Nordeste 0 -- -- 93
2019-02-10 18:00:00 8.7 4 Norte 15 Norte 0 -- -- 90
2019-02-10 17:00:00 8.8 5 Nordeste 22 Nordeste 0.6 -- -- 93
2019-02-10 16:00:00 9.1 6 Este 24 Norte 1.4 -- -- 91
2019-02-10 15:00:00 9.9 8 Norte 21 Norte 0.4 -- -- 93
2019-02-10 14:00:00 9.6 7 Norte 25 Noroeste 2 -- -- 94
2019-02-10 13:00:00 9.7 5 Norte 22 Norte 2.2 -- -- 95
2019-02-10 12:00:00 9.8 7 Noroeste 44 Sur 2.2 -- -- 93
2019-02-10 11:00:00 15 30 Sudoeste 64 Sudoeste 0 -- -- 61
2019-02-10 10:00:00 13.8 17 Sur 60 Sudeste 0 -- -- 63
2019-02-10 09:00:00 11.9 23 Sur 55 Sur 0.6 -- -- 76
2019-02-10 08:00:00 11.7 30 Sur 69 Sur 0.6 -- -- 77
2019-02-10 07:00:00 14.4 24 Sur 67 Sur 0 -- -- 52
2019-02-10 06:00:00 14.3 27 Sur 66 Sur 0 -- -- 51
2019-02-10 05:00:00 13.7 18 Sudeste 59 Sur 0 -- -- 51
2019-02-10 04:00:00 13.5 23 Sur 55 Sur 0 -- -- 53
2019-02-10 03:00:00 13.4 26 Sur 54 Sur 0 -- -- 53
2019-02-10 02:00:00 13.3 18 Sudeste 36 Sur 0 -- -- 57
2019-02-10 01:00:00 13.9 17 Sudeste 39 Este 0 -- -- 55
2019-02-10 00:00:00 14.4 17 Sudeste 30 Sudeste 0 -- -- 50
2019-02-09 23:00:00 14.7 13 Sudeste 39 Sur 0 -- -- 52
2019-02-09 22:00:00 14.7 8 Sudeste 24 Este 0 -- -- 54
2019-02-09 21:00:00 14.7 12 Sur 45 Sur 0 -- -- 53
2019-02-09 20:00:00 14.8 33 Sur 50 Sur 0 -- -- 55
2019-02-09 19:00:00 14.7 13 Sur 41 Sudoeste 0 -- -- 56
2019-02-09 18:00:00 15.5 9 Sur 31 Sur 0 -- -- 54
2019-02-09 17:00:00 16.5 12 Sur 28 Sudeste 0 -- -- 50
2019-02-09 16:00:00 17.3 7 Sur 31 Sur 0 -- -- 49
2019-02-09 15:00:00 18.1 13 Sudeste 31 Sudeste 0 -- -- 48
2019-02-09 14:00:00 18.4 5 Este 17 Este 0 -- -- 49
2019-02-09 13:00:00 15.4 6 Este 13 Nordeste 0 -- -- 54
2019-02-09 12:00:00 12 2 Noroeste 4 Norte 0 -- -- 72
2019-02-09 11:00:00 9.2 0 Calma 3 Norte 0 -- -- 86
2019-02-09 10:00:00 7.1 0 Calma 4 Noroeste 0 -- -- 93
2019-02-09 09:00:00 5.4 0 Calma 7 Noroeste 0 -- -- 96
2019-02-09 08:00:00 5.4 2 Noroeste 10 Noroeste 0 -- -- 97
2019-02-09 07:00:00 5.9 3 Sudeste 10 Noroeste 0 -- -- 92
2019-02-09 06:00:00 6.3 4 Norte 13 Noroeste 0 -- -- 95
2019-02-09 05:00:00 6.2 5 Noroeste 12 Noroeste 0 -- -- 96
2019-02-09 04:00:00 6.4 8 Noroeste 14 Noroeste 0 -- -- 97
2019-02-09 03:00:00 6.4 8 Norte 10 Noroeste 0 -- -- 98
2019-02-09 02:00:00 6.5 6 Noroeste 12 Noroeste 0 -- -- 97
2019-02-09 01:00:00 6.6 7 Noroeste 13 Norte 0 -- -- 98
2019-02-09 00:00:00 6.6 6 Noroeste 15 Noroeste 0 -- -- 99
2019-02-08 23:00:00 7.2 4 Norte 14 Norte 0 -- -- 98
2019-02-08 22:00:00 7.4 4 Noroeste 13 Norte 0 -- -- 96
2019-02-08 21:00:00 7.7 6 Noroeste 10 Norte 0 -- -- 96
2019-02-08 20:00:00 8.7 2 Sudeste 9 Noroeste 0 -- -- 91
2019-02-08 19:00:00 10.3 0 Calma 13 Sudoeste 0 -- -- 84
2019-02-08 18:00:00 13 2 Sudoeste 10 Sudoeste 0 -- -- 79
2019-02-08 17:00:00 14.7 6 Sur 18 Sudoeste 0 -- -- 74
2019-02-08 16:00:00 17.4 9 Sudoeste 20 Sudoeste 0 -- -- 63
2019-02-08 15:00:00 18.5 12 Sur 29 Sur 0 -- -- 45
2019-02-08 14:00:00 17.6 12 Sur 26 Sur 0 -- -- 47
2019-02-08 13:00:00 15.7 11 Sur 21 Sur 0 -- -- 55
2019-02-08 12:00:00 13.5 8 Sur 27 Sudoeste 0 -- -- 65
2019-02-08 11:00:00 9.5 4 Norte 9 Norte 0 -- -- 91
2019-02-08 10:00:00 6.8 3 Norte 13 Norte 0 -- -- 99
2019-02-08 09:00:00 3.8 7 Norte 14 Norte 0 -- -- 100
2019-02-08 08:00:00 2.8 0 Calma 9 Noroeste 0 -- -- 100
2019-02-08 07:00:00 2.7 0 Calma 9 Norte 0 -- -- 100
2019-02-08 06:00:00 2.9 2 Norte 8 Noroeste 0 -- -- 100
2019-02-08 05:00:00 2.7 0 Calma 5 Noroeste 0 -- -- 100
2019-02-08 04:00:00 3.1 2 Norte 8 Norte 0 -- -- 100
2019-02-08 03:00:00 3.4 2 Sur 7 Este 0 -- -- 99
2019-02-08 02:00:00 4 0 Calma 11 Norte 0 -- -- 98
2019-02-08 01:00:00 4.7 3 Norte 12 Noroeste 0 -- -- 98
2019-02-08 00:00:00 5.3 0 Calma 12 Nordeste 0 -- -- 94
2019-02-07 23:00:00 6 5 Este 17 Este 0 -- -- 91
2019-02-07 22:00:00 6.8 5 Nordeste 12 Este 0 -- -- 92
2019-02-07 21:00:00 7.6 2 Sudeste 9 Noroeste 0 -- -- 93
2019-02-07 20:00:00 8.9 2 Norte 5 Norte 0 -- -- 88
2019-02-07 19:00:00 9.9 0 Calma 5 Norte 0 -- -- 82
2019-02-07 18:00:00 10.5 3 Oeste 8 Norte 0 -- -- 74
2019-02-07 17:00:00 10.8 2 Este 9 Nordeste 0 -- -- 75
2019-02-07 16:00:00 10.7 3 Este 13 Oeste 0 -- -- 82
2019-02-07 15:00:00 10.6 4 Nordeste 10 Nordeste 0 -- -- 75
2019-02-07 14:00:00 10.2 2 Nordeste 28 Noroeste 0 -- -- 88
2019-02-07 13:00:00 9.6 3 Sur 10 Nordeste 0.6 -- -- 100
2019-02-07 12:00:00 8.4 0 Calma 0 Calma 0 -- -- 100
2019-02-07 11:00:00 8 0 Calma 0 Calma 0 -- -- 100
2019-02-07 10:00:00 7.1 0 Calma 0 Calma 0 -- -- 100
2019-02-07 09:00:00 6.6 0 Calma 0 Calma 0 -- -- 100
2019-02-07 08:00:00 6.4 0 Calma 2 Norte 0 -- -- 100
2019-02-07 07:00:00 6.7 0 Calma 0 Calma 0 -- -- 100
2019-02-07 06:00:00 6.5 0 Calma 0 Calma 0 -- -- 100
2019-02-07 05:00:00 6.5 0 Calma 4 Noroeste 0 -- -- 100
2019-02-07 04:00:00 6.7 0 Calma 6 Noroeste 0 -- -- 100
2019-02-07 03:00:00 6.7 2 Sudoeste 9 Norte 0 -- -- 100
2019-02-07 02:00:00 6.6 0 Calma 4 Sur 0 -- -- 100
2019-02-07 01:00:00 7.1 0 Calma 4 Sudoeste 0 -- -- 100
2019-02-07 00:00:00 7.5 2 Sudeste 10 Noroeste 0 -- -- 100
2019-02-06 23:00:00 8.7 3 Noroeste 9 Noroeste 0 -- -- 100
2019-02-06 22:00:00 9.5 5 Noroeste 10 Noroeste 0 -- -- 98
2019-02-06 21:00:00 10.4 2 Norte 10 Noroeste 0 -- -- 99
2019-02-06 20:00:00 11.7 0 Calma 9 Noroeste 0 -- -- 94
2019-02-06 19:00:00 12.9 10 Norte 15 Noroeste 0 -- -- 92
2019-02-06 18:00:00 16.5 0 Calma 3 Oeste 0 -- -- 77
2019-02-06 17:00:00 17.3 0 Calma 8 Sudoeste 0 -- -- 72
2019-02-06 16:00:00 19.1 5 Sudoeste 8 Sudoeste 0 -- -- 68
2019-02-06 15:00:00 19.5 4 Sudoeste 8 Sudoeste 0 -- -- 65
2019-02-06 14:00:00 17 2 Sudoeste 8 Noroeste 0 -- -- 68
2019-02-06 13:00:00 14.9 2 Noroeste 5 Noroeste 0 -- -- 77
2019-02-06 12:00:00 13.6 4 Norte 5 Norte 0 -- -- 82
2019-02-06 11:00:00 12.2 3 Norte 6 Norte 0 -- -- 93
2019-02-06 10:00:00 10.3 2 Norte 8 Este 0 -- -- 99
2019-02-06 09:00:00 8.9 0 Calma 6 Noroeste 0 -- -- 100
2019-02-06 08:00:00 9 0 Calma 4 Norte 0 -- -- 100
2019-02-06 07:00:00 9 3 Noroeste 5 Noroeste 0 -- -- 100
2019-02-06 06:00:00 9 0 Calma 6 Este 0 -- -- 100
2019-02-06 05:00:00 9 3 Este 4 Sur 0 -- -- 100
2019-02-06 04:00:00 9.1 0 Calma 5 Este 0 -- -- 100
2019-02-06 03:00:00 9.2 0 Calma 5 Este 0 -- -- 100
2019-02-06 02:00:00 9.3 0 Calma 3 Sur 0.2 -- -- 100
2019-02-06 01:00:00 9.5 0 Calma 4 Este 0.2 -- -- 100
2019-02-06 00:00:00 9.7 2 Norte 4 Norte 0.4 -- -- 100
2019-02-05 23:00:00 9.9 0 Calma 2 Sudeste 0.2 -- -- 100
2019-02-05 22:00:00 10 0 Calma 4 Norte 0.2 -- -- 100
2019-02-05 21:00:00 10.1 0 Calma 3 Sudeste 0.4 -- -- 100
2019-02-05 20:00:00 10.2 0 Calma 2 Noroeste 0.8 -- -- 100
2019-02-05 19:00:00 10.4 0 Calma 3 Sudeste 0.2 -- -- 100
2019-02-05 18:00:00 10.5 0 Calma 4 Noroeste 0.6 -- -- 100
2019-02-05 17:00:00 10.8 3 Noroeste 4 Noroeste 0.4 -- -- 100
2019-02-05 16:00:00 11.1 0 Calma 6 Norte 0 -- -- 100
2019-02-05 15:00:00 11 3 Noroeste 5 Noroeste 0.6 -- -- 100
2019-02-05 14:00:00 11 0 Calma 6 Norte 0.2 -- -- 100
2019-02-05 13:00:00 10.9 0 Calma 4 Sudeste 0.4 -- -- 100
2019-02-05 12:00:00 10.5 0 Calma 5 Noroeste 0.2 -- -- 100
2019-02-05 11:00:00 9.8 0 Calma 10 Nordeste 0.2 -- -- 100
2019-02-05 10:00:00 9.2 0 Calma 6 Norte 0 -- -- 100
2019-02-05 09:00:00 8.9 2 Sur 8 Noroeste 0.4 -- -- 100
2019-02-05 08:00:00 9.1 0 Calma 6 Noroeste 0 -- -- 100
2019-02-05 07:00:00 8.8 2 Noroeste 4 Sudoeste 0.2 -- -- 100
2019-02-05 06:00:00 8.9 0 Calma 8 Sudeste 0.2 -- -- 100
2019-02-05 05:00:00 8.6 0 Calma 5 Sudeste 0.4 -- -- 100
2019-02-05 04:00:00 8.3 3 Noroeste 5 Sudoeste 1 -- -- 100
2019-02-05 03:00:00 8.1 0 Calma 4 Sudoeste 1 -- -- 100
2019-02-05 02:00:00 7.9 0 Calma 5 Norte 0.6 -- -- 100
2019-02-05 01:00:00 7.7 0 Calma 6 Noroeste 0.8 -- -- 100
2019-02-05 00:00:00 7.5 2 Norte 5 Norte 0.2 -- -- 100
2019-02-04 23:00:00 7.5 0 Calma 5 Norte 0.2 -- -- 100
2019-02-04 22:00:00 7.4 0 Calma 5 Norte 0.4 -- -- 100
2019-02-04 21:00:00 7.4 0 Calma 6 Noroeste 0.2 -- -- 99
2019-02-04 20:00:00 7.7 0 Calma 8 Nordeste 0.2 -- -- 94
2019-02-04 19:00:00 8.1 4 Este 10 Este 0.2 -- -- 90
2019-02-04 18:00:00 9.2 3 Este 6 Sudeste 0.4 -- -- 85
2019-02-04 17:00:00 10.8 0 Calma 16 Sudoeste 0 -- -- 73
2019-02-04 16:00:00 12 3 Noroeste 9 Oeste 0 -- -- 50
2019-02-04 15:00:00 12 0 Calma 4 Sudoeste 0 -- -- 64
2019-02-04 14:00:00 11.1 0 Calma 5 Sur 0 -- -- 75
2019-02-04 13:00:00 9.6 2 Sudoeste 4 Norte 0 -- -- 80
2019-02-04 12:00:00 7.4 0 Calma 6 Noroeste 0 -- -- 84
2019-02-04 11:00:00 5.3 0 Calma 4 Este 0 -- -- 91
2019-02-04 10:00:00 2.8 0 Calma 8 Noroeste 0 -- -- 98
2019-02-04 09:00:00 0.8 3 Norte 13 Este 0 -- -- 100
2019-02-04 08:00:00 0.2 4 Nordeste 11 Sudeste 0 -- -- 100
2019-02-04 07:00:00 0.5 2 Nordeste 9 Norte 0 -- -- 100
2019-02-04 06:00:00 0.8 0 Calma 6 Sudeste 0 -- -- 100
2019-02-04 05:00:00 1.2 3 Sur 8 Sudeste 0 -- -- 100
2019-02-04 04:00:00 1.8 3 Norte 12 Este 0 -- -- 100
2019-02-04 03:00:00 2 3 Sudeste 6 Sudeste 0 -- -- 100
2019-02-04 02:00:00 2.5 2 Oeste 8 Nordeste 0 -- -- 100
2019-02-04 01:00:00 3 6 Nordeste 14 Nordeste 0.6 -- -- 100
2019-02-04 00:00:00 2.7 2 Sur 6 Norte 0.6 -- -- 100
2019-02-03 23:00:00 2.7 0 Calma 6 Sudeste 0 -- -- 99
2019-02-03 22:00:00 3.1 0 Calma 6 Sudeste 0 -- -- 99
2019-02-03 21:00:00 3.5 3 Sudeste 6 Sudeste 0 -- -- 98
2019-02-03 20:00:00 4.2 0 Calma 3 Sudoeste 0 -- -- 96
2019-02-03 19:00:00 5.1 2 Sudoeste 3 Sudoeste 0 -- -- 94
2019-02-03 18:00:00 5.8 0 Calma 10 Sudoeste 0 -- -- 88
2019-02-03 17:00:00 6.5 3 Sudoeste 15 Sudoeste 0 -- -- 85
2019-02-03 16:00:00 7.1 6 Sudoeste 17 Sudoeste 0 -- -- 83
2019-02-03 15:00:00 7.2 3 Sur 10 Sur 0 -- -- 84
2019-02-03 14:00:00 6.7 4 Sur 15 Noroeste 0.2 -- -- 83
2019-02-03 13:00:00 4.9 2 Oeste 13 Sudoeste 0.2 -- -- 90
2019-02-03 12:00:00 3.6 5 Sudoeste 12 Sudoeste 0 -- -- 96
2019-02-03 11:00:00 2.8 4 Sudoeste 19 Nordeste 1 -- -- 100
2019-02-03 10:00:00 1.9 2 Sudoeste 6 Este 0.2 -- -- 99
2019-02-03 09:00:00 1.9 3 Sur 15 Nordeste 1.2 -- -- 97
2019-02-03 08:00:00 2.4 3 Oeste 9 Noroeste 0.4 -- -- 98
2019-02-03 07:00:00 2.9 5 Noroeste 16 Norte 1.2 -- -- 94
2019-02-03 06:00:00 2.9 3 Sur 26 Noroeste 0.4 -- -- 95
2019-02-03 05:00:00 2.3 3 Oeste 10 Sudoeste 0.4 -- -- 98
2019-02-03 04:00:00 2.6 2 Sur 12 Nordeste 0 -- -- 94
2019-02-03 03:00:00 3.3 3 Oeste 15 Noroeste 0.4 -- -- 91
2019-02-03 02:00:00 3.6 3 Este 24 Nordeste 0 -- -- 89
2019-02-03 01:00:00 4.6 15 Norte 43 Norte 4 -- -- 82
2019-02-03 00:00:00 -- -- -- -- -- -- -- -- --
2019-02-02 23:00:00 -- -- -- -- -- -- -- -- --
2019-02-02 22:00:00 4.8 4 Sudoeste 49 Norte 0.2 -- -- 81
2019-02-02 21:00:00 5.9 9 Noroeste 44 Noroeste 0 -- -- 74
2019-02-02 20:00:00 5 3 Este 35 Norte 0.2 -- -- 87
2019-02-02 19:00:00 5.7 10 Noroeste 39 Noroeste 0.2 -- -- 74
2019-02-02 18:00:00 5 16 Noroeste 71 Noroeste 0.2 -- -- 80
2019-02-02 17:00:00 7.6 13 Noroeste 40 Norte 0 -- -- 65
2019-02-02 16:00:00 8 13 Noroeste 47 Noroeste 0.2 -- -- 58
2019-02-02 15:00:00 7.7 21 Noroeste 49 Norte 0 -- -- 65
2019-02-02 14:00:00 6.6 19 Noroeste 52 Noroeste 0.2 -- -- 71
2019-02-02 13:00:00 7.1 13 Noroeste 46 Noroeste 0 -- -- 72
2019-02-02 12:00:00 5.8 6 Noroeste 45 Noroeste 0.6 -- -- 82
2019-02-02 11:00:00 5.5 11 Noroeste 59 Noroeste 0.2 -- -- 89
2019-02-02 10:00:00 6 19 Noroeste 39 Noroeste 1.4 -- -- 90
2019-02-02 09:00:00 5.1 11 Noroeste 62 Oeste 3.8 -- -- 93
2019-02-02 08:00:00 7.1 19 Noroeste 45 Noroeste 0.8 -- -- 88
2019-02-02 07:00:00 7.3 20 Noroeste 57 Noroeste 2 -- -- 90
2019-02-02 06:00:00 5.7 4 Oeste 24 Noroeste 5.2 -- -- 99
2019-02-02 05:00:00 4 0 Calma 12 Noroeste 3.6 -- -- 100
2019-02-02 04:00:00 3.7 7 Nordeste 22 Nordeste 5.8 -- -- 99
2019-02-02 03:00:00 4.6 3 Sur 11 Sudeste 5.8 -- -- 96
2019-02-02 02:00:00 5.5 8 Oeste 17 Sudoeste 2 -- -- 93
2019-02-02 01:00:00 5.1 3 Oeste 10 Este 0.8 -- -- 99
2019-02-02 00:00:00 5 5 Este 9 Este 0.2 -- -- 100
2019-02-01 23:00:00 4.9 0 Calma 12 Noroeste 0 -- -- 98
2019-02-01 22:00:00 4.9 3 Noroeste 16 Norte 0 -- -- 96
2019-02-01 21:00:00 5.1 6 Noroeste 12 Norte 0 -- -- 94
2019-02-01 20:00:00 5.6 6 Nordeste 20 Nordeste 0 -- -- 87
2019-02-01 19:00:00 5.2 11 Este 20 Este 2.4 -- -- 92
2019-02-01 18:00:00 8.5 16 Sudoeste 36 Sur 0 -- -- 73
2019-02-01 17:00:00 9 5 Sur 39 Sudoeste 2 -- -- 84
2019-02-01 16:00:00 10.9 20 Sur 59 Sudoeste 0 -- -- 68
2019-02-01 15:00:00 13.1 21 Sur 39 Sur 0 -- -- 49
2019-02-01 14:00:00 13.2 6 Sur 33 Sur 0 -- -- 48
2019-02-01 13:00:00 13.8 12 Sur 50 Sur 0 -- -- 49
2019-02-01 12:00:00 12.6 14 Sur 47 Sur 0 -- -- 51
2019-02-01 11:00:00 12.5 22 Sur 55 Sur 0 -- -- 54
2019-02-01 10:00:00 11.6 24 Sur 54 Sur 0 -- -- 56
2019-02-01 09:00:00 9.9 24 Sur 39 Sur 0 -- -- 63
2019-02-01 08:00:00 9.7 15 Sur 32 Sudoeste 0 -- -- 69
2019-02-01 07:00:00 8.3 21 Sur 40 Sudoeste 0 -- -- 80
2019-02-01 06:00:00 7 0 Calma 16 Este 0 -- -- 99
2019-02-01 05:00:00 7.8 7 Este 15 Este 0 -- -- 100
2019-02-01 04:00:00 8.3 3 Nordeste 8 Nordeste 0.6 -- -- 100
2019-02-01 03:00:00 8.4 3 Nordeste 7 Noroeste 0.6 -- -- 100
2019-02-01 02:00:00 8.6 0 Calma 6 Nordeste 0.6 -- -- 100
2019-02-01 01:00:00 8.7 0 Calma 8 Norte 0 -- -- 100
2019-02-01 00:00:00 8.9 5 Nordeste 28 Nordeste 1.4 -- -- 100
2019-01-31 23:00:00 9.1 3 Norte 15 Este 2.2 -- -- 100
2019-01-31 22:00:00 9.3 3 Sudeste 9 Sudeste 3 -- -- 99
2019-01-31 21:00:00 9.6 4 Sudeste 28 Noroeste 5.2 -- -- 97
2019-01-31 20:00:00 10 4 Noroeste 29 Norte 8.8 -- -- 96
2019-01-31 19:00:00 11 12 Noroeste 39 Noroeste 10.4 -- -- 93
2019-01-31 18:00:00 14.1 19 Sur 35 Sudeste 0 -- -- 76
2019-01-31 17:00:00 16.4 21 Sur 44 Sudoeste 0 -- -- 69
2019-01-31 16:00:00 16.6 19 Sudoeste 53 Sudoeste 0 -- -- 65
2019-01-31 15:00:00 16.2 21 Sur 45 Sudoeste 0 -- -- 70
2019-01-31 14:00:00 15.6 15 Sudoeste 56 Oeste 0 -- -- 69
2019-01-31 13:00:00 14 14 Sur 34 Sudoeste 0.2 -- -- 79
2019-01-31 12:00:00 13.6 12 Sur 28 Sudoeste 0.2 -- -- 79
2019-01-31 11:00:00 12.7 8 Sur 37 Sudoeste 0 -- -- 83
2019-01-31 10:00:00 10.2 10 Norte 24 Nordeste 1 -- -- 95
2019-01-31 09:00:00 9.9 7 Sudoeste 17 Sudoeste 3.6 -- -- 96
2019-01-31 08:00:00 9.1 11 Norte 25 Nordeste 3.2 -- -- 97
2019-01-31 07:00:00 8.6 8 Nordeste 22 Norte 2.4 -- -- 96
2019-01-31 06:00:00 8.8 12 Este 36 Este 0.6 -- -- 90
2019-01-31 05:00:00 8.2 13 Sudeste 32 Este 1.2 -- -- 90
2019-01-31 04:00:00 7.4 19 Este 35 Este 0.6 -- -- 92
2019-01-31 03:00:00 6.9 20 Este 41 Sudeste 1.4 -- -- 91
2019-01-31 02:00:00 7.2 25 Sudeste 41 Sudeste 0.4 -- -- 85
2019-01-31 01:00:00 6.9 18 Sudeste 36 Sur 0.4 -- -- 87
2019-01-31 00:00:00 6.9 17 Sudeste 30 Sur 1.2 -- -- 85
2019-01-30 23:00:00 8.1 20 Sudeste 31 Sudeste 0.2 -- -- 84
2019-01-30 22:00:00 8.8 15 Sur 28 Sur 0 -- -- 74
2019-01-30 21:00:00 8.4 9 Sudeste 18 Sudeste 0 -- -- 66
2019-01-30 20:00:00 7.4 4 Noroeste 13 Norte 0 -- -- 81
2019-01-30 19:00:00 8 5 Noroeste 14 Este 0 -- -- 73
2019-01-30 18:00:00 9 9 Sudeste 36 Sur 0 -- -- 61
2019-01-30 17:00:00 9.8 8 Sur 18 Sudoeste 0 -- -- 61
2019-01-30 16:00:00 10.3 7 Sur 24 Sur 0 -- -- 60
2019-01-30 15:00:00 10.4 10 Sur 18 Sudoeste 0 -- -- 68
2019-01-30 14:00:00 9.1 9 Sudoeste 20 Sudoeste 0 -- -- 76
2019-01-30 13:00:00 6.6 3 Este 13 Norte 0.2 -- -- 97
2019-01-30 12:00:00 5.2 8 Noroeste 20 Este 0 -- -- 94
2019-01-30 11:00:00 4.4 8 Este 19 Este 1 -- -- 96
2019-01-30 10:00:00 4.5 3 Sur 20 Norte 3.8 -- -- 95
2019-01-30 09:00:00 4.7 5 Norte 18 Sudoeste 0.6 -- -- 96
2019-01-30 08:00:00 4.9 6 Sudoeste 27 Sudoeste 1.8 -- -- 92
2019-01-30 07:00:00 5.2 3 Sur 28 Sudoeste 2.4 -- -- 93
2019-01-30 06:00:00 5.1 6 Noroeste 17 Noroeste 1.8 -- -- 97
2019-01-30 05:00:00 5.3 5 Sudoeste 12 Sur 0.2 -- -- 96
2019-01-30 04:00:00 5.7 7 Sur 43 Norte 1.8 -- -- 90
2019-01-30 03:00:00 6.4 4 Nordeste 30 Norte 1.6 -- -- 90
2019-01-30 02:00:00 7.5 7 Norte 27 Norte 0 -- -- 79
2019-01-30 01:00:00 6.4 11 Norte 35 Norte 0 -- -- 86
2019-01-30 00:00:00 5.6 8 Norte 44 Norte 1.8 -- -- 92
2019-01-29 23:00:00 6 9 Noroeste 51 Este -- -- -- 90
2019-01-29 22:00:00 -- -- -- -- -- -- -- -- --
2019-01-29 21:00:00 -- -- -- -- -- -- -- -- --
2019-01-29 20:00:00 -- -- -- -- -- -- -- -- --
2019-01-29 19:00:00 -- -- -- -- -- -- -- -- --
2019-01-29 18:00:00 -- -- -- -- -- -- -- -- --
2019-01-29 17:00:00 9.5 10 Sudeste 47 Sudoeste 0.6 -- -- 83
2019-01-29 16:00:00 9.2 13 Sudoeste 37 Sudoeste 1 -- -- 87
2019-01-29 15:00:00 9.3 19 Sur 51 Sudoeste 1.4 -- -- 88
2019-01-29 14:00:00 8.9 5 Sudoeste 15 Nordeste 1.6 -- -- 87
2019-01-29 13:00:00 9.4 4 Norte 15 Este 0 -- -- 80
2019-01-29 12:00:00 8.4 4 Norte 22 Nordeste 0 -- -- 91
2019-01-29 11:00:00 7 5 Nordeste 9 Norte 0.6 -- -- 99
2019-01-29 10:00:00 6.7 2 Nordeste 7 Sudeste 0 -- -- 100
2019-01-29 09:00:00 6.6 3 Nordeste 11 Este 0 -- -- 100
2019-01-29 08:00:00 6.5 4 Este 6 Este 0.6 -- -- 100
2019-01-29 07:00:00 6.6 0 Calma 7 Este 0.8 -- -- 100
2019-01-29 06:00:00 6.8 3 Norte 9 Nordeste 0.2 -- -- 98
2019-01-29 05:00:00 7 3 Oeste 10 Oeste 0.2 -- -- 96
2019-01-29 04:00:00 6.5 0 Calma 6 Noroeste 0.8 -- -- 100
2019-01-29 03:00:00 6.7 0 Calma 6 Sudoeste 0.2 -- -- 99
2019-01-29 02:00:00 7 0 Calma 10 Noroeste 1.8 -- -- 97
2019-01-29 01:00:00 7.3 3 Norte 9 Noroeste 0.2 -- -- 92
2019-01-29 00:00:00 7.8 4 Sudoeste 15 Nordeste 0.6 -- -- 84
2019-01-28 23:00:00 8.3 3 Oeste 15 Oeste 0.2 -- -- 87
2019-01-28 22:00:00 8.1 7 Oeste 17 Sudoeste 1.4 -- -- 86
2019-01-28 21:00:00 8.3 5 Noroeste 25 Noroeste 0.4 -- -- 91
2019-01-28 20:00:00 8.5 7 Noroeste 41 Norte 0.4 -- -- 87
2019-01-28 19:00:00 8.9 13 Norte 41 Noroeste 0 -- -- 88
2019-01-28 18:00:00 9.1 5 Noroeste 37 Norte 0 -- -- 86
2019-01-28 17:00:00 8.6 8 Norte 33 Nordeste 0.2 -- -- 89
2019-01-28 16:00:00 8.8 13 Noroeste 60 Noroeste 0.4 -- -- 90
2019-01-28 15:00:00 9.1 14 Noroeste 44 Norte 1.4 -- -- 87
2019-01-28 14:00:00 8.7 8 Nordeste 39 Norte 2 -- -- 92
2019-01-28 13:00:00 8.8 8 Nordeste 58 Nordeste 4 -- -- 90
2019-01-28 12:00:00 8.7 9 Norte 31 Norte 0.8 -- -- 91
2019-01-28 11:00:00 9.8 12 Norte 41 Noroeste 0 -- -- 78
2019-01-28 10:00:00 9.2 13 Norte 36 Norte 0.2 -- -- 86
2019-01-28 09:00:00 9.1 12 Norte 40 Noroeste 3.2 -- -- 94
2019-01-28 08:00:00 8.9 11 Nordeste 39 Norte 4 -- -- 94
2019-01-28 07:00:00 9.1 12 Sur 28 Sudoeste 0.8 -- -- 91
2019-01-28 06:00:00 8.6 9 Sudeste 26 Nordeste 0.6 -- -- 95
2019-01-28 05:00:00 7.9 10 Sudoeste 33 Sudoeste 1.6 -- -- 93
2019-01-28 04:00:00 7.5 5 Sudoeste 25 Sur 0.6 -- -- 91
2019-01-28 03:00:00 6.7 6 Sudeste 22 Sudoeste 0.6 -- -- 94
2019-01-28 02:00:00 5.8 5 Este 24 Sur 1.6 -- -- 96
2019-01-28 01:00:00 6.3 3 Noroeste 38 Sudoeste 3.2 -- -- 90
2019-01-28 00:00:00 6.3 10 Sudoeste 26 Norte 2 -- -- 90
2019-01-27 23:00:00 7 5 Norte 31 Noroeste 1 -- -- 90
2019-01-27 22:00:00 7.8 6 Oeste 22 Norte 0.2 -- -- 85
2019-01-27 21:00:00 7.1 16 Norte 38 Norte 1.2 -- -- 90
2019-01-27 20:00:00 7.4 5 Noroeste 35 Norte 0.8 -- -- 86
2019-01-27 19:00:00 6.9 13 Norte 41 Noroeste 2.2 -- -- 89
2019-01-27 18:00:00 7.3 7 Norte 31 Norte 1 -- -- 86
2019-01-27 17:00:00 8.2 10 Noroeste 31 Noroeste 0 -- -- 76
2019-01-27 16:00:00 6.6 8 Noroeste 51 Norte 0.4 -- -- 84
2019-01-27 15:00:00 7.2 5 Sudoeste 29 Noroeste 1 -- -- 90
2019-01-27 14:00:00 7.6 7 Norte 42 Oeste 1.6 -- -- 90
2019-01-27 13:00:00 7.7 12 Noroeste 46 Sudoeste 0.8 -- -- 91
2019-01-27 12:00:00 8 14 Norte 39 Norte 1.6 -- -- 92
2019-01-27 11:00:00 7.5 9 Norte 32 Sudoeste 1.6 -- -- 92
2019-01-27 10:00:00 6.8 11 Sur 51 Norte 2.2 -- -- 93
2019-01-27 09:00:00 8.6 10 Sur 39 Sudoeste 0 -- -- 79
2019-01-27 08:00:00 8.3 6 Noroeste 42 Sur 0.2 -- -- 80
2019-01-27 07:00:00 8.1 12 Norte 38 Nordeste 2.2 -- -- 87
2019-01-27 06:00:00 9 4 Norte 50 Sur 2.2 -- -- 88
2019-01-27 05:00:00 8.8 5 Noroeste 28 Nordeste 1.2 -- -- 98
2019-01-27 04:00:00 5.7 4 Noroeste 15 Nordeste 0 -- -- 100
2019-01-27 03:00:00 4.9 0 Calma 10 Norte 0 -- -- 100
2019-01-27 02:00:00 5.2 5 Norte 14 Noroeste 0 -- -- 100
2019-01-27 01:00:00 4.8 2 Sur 8 Norte 0 -- -- 100
2019-01-27 00:00:00 5 0 Calma 9 Sudeste 0 -- -- 100
2019-01-26 23:00:00 5.5 0 Calma 6 Sudeste 0 -- -- 100
2019-01-26 22:00:00 5.9 2 Sur 5 Sudeste 0 -- -- 100
2019-01-26 21:00:00 6.6 2 Noroeste 8 Norte 0 -- -- 100
2019-01-26 20:00:00 7.7 3 Sur 5 Sudeste 0 -- -- 96
2019-01-26 19:00:00 9.2 0 Calma 6 Sudoeste 0 -- -- 91
2019-01-26 18:00:00 11 3 Oeste 8 Oeste 0 -- -- 83
2019-01-26 17:00:00 14 0 Calma 6 Sudoeste 0 -- -- 78
2019-01-26 16:00:00 12.6 3 Noroeste 6 Noroeste 0 -- -- 72
2019-01-26 15:00:00 12.7 4 Norte 6 Norte 0 -- -- 76
2019-01-26 14:00:00 12.1 0 Calma 3 Nordeste 0 -- -- 84
2019-01-26 13:00:00 11.4 0 Calma 3 Norte 0 -- -- 87
2019-01-26 12:00:00 10.8 0 Calma 3 Sudeste 0 -- -- 98
2019-01-26 11:00:00 9.4 0 Calma 2 Norte 0 -- -- 100
2019-01-26 10:00:00 8.6 0 Calma 4 Noroeste 0.2 -- -- 100
2019-01-26 09:00:00 8.4 0 Calma 5 Noroeste 0.2 -- -- 100
2019-01-26 08:00:00 8.5 2 Norte 5 Nordeste 0 -- -- 100
2019-01-26 07:00:00 8.7 0 Calma 5 Sudeste 0 -- -- 100
2019-01-26 06:00:00 8.9 3 Sur 8 Noroeste 0 -- -- 100
2019-01-26 05:00:00 9 0 Calma 9 Oeste 0 -- -- 100
2019-01-26 04:00:00 9 0 Calma 6 Noroeste 0.4 -- -- 100
2019-01-26 03:00:00 9.1 0 Calma 5 Este 1.8 -- -- 100
2019-01-26 02:00:00 9.2 3 Sudoeste 16 Noroeste 0.2 -- -- 100
2019-01-26 01:00:00 9.3 0 Calma 14 Noroeste 0.4 -- -- 100
2019-01-26 00:00:00 9.2 4 Noroeste 10 Noroeste 4 -- -- 100
2019-01-25 23:00:00 9.4 3 Oeste 10 Norte 2.8 -- -- 100
2019-01-25 22:00:00 9.5 4 Noroeste 19 Norte 2.8 -- -- 100
2019-01-25 21:00:00 9.4 3 Noroeste 10 Noroeste 1.6 -- -- 100
2019-01-25 20:00:00 9.4 3 Noroeste 17 Norte 1.2 -- -- 99
2019-01-25 19:00:00 9.4 6 Norte 17 Noroeste 3 -- -- 99
2019-01-25 18:00:00 9.6 6 Noroeste 21 Oeste 4.4 -- -- 99
2019-01-25 17:00:00 9.5 6 Noroeste 27 Norte 2.8 -- -- 99
2019-01-25 16:00:00 9.6 5 Oeste 31 Noroeste 2 -- -- 98
2019-01-25 15:00:00 9.7 8 Noroeste 24 Norte 1.6 -- -- 99
2019-01-25 14:00:00 9.9 6 Noroeste 19 Noroeste 6 -- -- 99
2019-01-25 13:00:00 10.1 8 Noroeste 34 Norte 1.8 -- -- 98
2019-01-25 12:00:00 10 4 Noroeste 16 Noroeste 3.6 -- -- 99
2019-01-25 11:00:00 9.7 6 Noroeste 26 Noroeste 3.8 -- -- 100
2019-01-25 10:00:00 9.6 4 Noroeste 28 Norte 4.6 -- -- 99
2019-01-25 09:00:00 9.7 6 Noroeste 24 Norte 4.8 -- -- 99
2019-01-25 08:00:00 9.7 5 Noroeste 28 Noroeste 4.2 -- -- 99
2019-01-25 07:00:00 9.7 5 Noroeste 30 Noroeste 3.2 -- -- 99
2019-01-25 06:00:00 9.4 8 Noroeste 29 Noroeste 2.8 -- -- 99
2019-01-25 05:00:00 9 8 Noroeste 24 Norte 0.8 -- -- 100
2019-01-25 04:00:00 5.6 5 Oeste 18 Norte 0.6 -- -- 100
2019-01-25 03:00:00 4.8 2 Norte 8 Este 1 -- -- 100
2019-01-25 02:00:00 4.8 2 Nordeste 9 Este 1 -- -- 100
2019-01-25 01:00:00 4.7 4 Este 12 Nordeste 0.4 -- -- 100
2019-01-25 00:00:00 4.7 2 Este 10 Nordeste 0.2 -- -- 100
2019-01-24 23:00:00 4.6 2 Nordeste 11 Este 0.4 -- -- 100
2019-01-24 22:00:00 4.5 4 Este 10 Este 0.8 -- -- 100
2019-01-24 21:00:00 4.7 0 Calma 9 Nordeste 0.4 -- -- 98
2019-01-24 20:00:00 4.8 5 Este 9 Nordeste 0 -- -- 97
2019-01-24 19:00:00 4.8 4 Este 9 Este 0 -- -- 95
2019-01-24 18:00:00 4.8 6 Este 10 Este 0 -- -- 96
2019-01-24 17:00:00 4.9 4 Nordeste 9 Este 0 -- -- 96
2019-01-24 16:00:00 5 4 Este 8 Nordeste 0 -- -- 96
2019-01-24 15:00:00 5 4 Nordeste 9 Este 0.2 -- -- 100
2019-01-24 14:00:00 4.4 0 Calma 8 Sudeste 0.6 -- -- 98
2019-01-24 13:00:00 4.1 5 Sudeste 10 Sudeste 0 -- -- 95
2019-01-24 12:00:00 4.1 5 Este 13 Este 0 -- -- 95
2019-01-24 11:00:00 3.9 5 Este 12 Este 0 -- -- 98
2019-01-24 10:00:00 4 3 Sudeste 9 Este 0.2 -- -- 99
2019-01-24 09:00:00 4.5 4 Sur 6 Sur 0.2 -- -- 100
2019-01-24 08:00:00 4.7 0 Calma 4 Sudoeste 1 -- -- 100
2019-01-24 07:00:00 4.7 2 Sur 9 Oeste 0.6 -- -- 100
2019-01-24 06:00:00 4.8 4 Noroeste 17 Noroeste 2.2 -- -- 96
2019-01-24 05:00:00 5.8 9 Noroeste 33 Oeste 2 -- -- 95
2019-01-24 04:00:00 6 10 Noroeste 26 Noroeste 1.2 -- -- 89
2019-01-24 03:00:00 6 9 Noroeste 26 Noroeste 1.2 -- -- 92
2019-01-24 02:00:00 6.1 13 Noroeste 37 Oeste 1 -- -- 91
2019-01-24 01:00:00 6.4 13 Noroeste 43 Noroeste 2.6 -- -- 90
2019-01-24 00:00:00 6.3 10 Noroeste 28 Norte 3.4 -- -- 96
2019-01-23 23:00:00 6.7 12 Noroeste 48 Noroeste 1.4 -- -- 93
2019-01-23 22:00:00 7.4 20 Noroeste 45 Norte 1.4 -- -- 92
2019-01-23 21:00:00 7.3 17 Noroeste 48 Noroeste 2.2 -- -- 94
2019-01-23 20:00:00 7.6 16 Noroeste 43 Noroeste 2.2 -- -- 93
2019-01-23 19:00:00 7.6 12 Noroeste 57 Norte 5 -- -- 90
2019-01-23 18:00:00 7.7 9 Este 55 Norte 2.4 -- -- 98
2019-01-23 17:00:00 7.7 11 Noroeste 40 Oeste 4.6 -- -- 96
2019-01-23 16:00:00 7.5 15 Noroeste 41 Norte 2.8 -- -- 96
2019-01-23 15:00:00 8.3 9 Noroeste 28 Norte 0.2 -- -- 90
2019-01-23 14:00:00 7.9 13 Noroeste 51 Norte 2.2 -- -- 94
2019-01-23 13:00:00 8 4 Sur 62 Noroeste 3.2 -- -- 93
2019-01-23 12:00:00 9.3 10 Norte 45 Norte 0 -- -- 89
2019-01-23 11:00:00 8.6 13 Noroeste 48 Norte 0.6 -- -- 95
2019-01-23 10:00:00 8.6 13 Noroeste 42 Norte 3.2 -- -- 98
2019-01-23 09:00:00 8.5 8 Noroeste 80 Norte 11.8 -- -- 100
2019-01-23 08:00:00 10.1 15 Norte 49 Noroeste 3.8 -- -- 93
2019-01-23 07:00:00 9.7 14 Sudeste 45 Sudoeste 4.8 -- -- 99
2019-01-23 06:00:00 7.2 8 Norte 17 Este 4.2 -- -- 100
2019-01-23 05:00:00 7.5 5 Nordeste 18 Oeste 2.8 -- -- 96
2019-01-23 04:00:00 8 7 Noroeste 28 Sudoeste 2.2 -- -- 95
2019-01-23 03:00:00 7.9 12 Sudoeste 28 Sudoeste 1 -- -- 93
2019-01-23 02:00:00 7.6 9 Oeste 29 Sudoeste 1.6 -- -- 93
2019-01-23 01:00:00 6.1 3 Norte 17 Sudoeste 1.6 -- -- 100
2019-01-23 00:00:00 4.4 2 Sur 10 Noroeste 2.2 -- -- 100
2019-01-22 23:00:00 4.2 5 Sudeste 21 Sudeste 2.2 -- -- 97
2019-01-22 22:00:00 5 4 Sur 8 Este 3.6 -- -- 96
2019-01-22 21:00:00 5.7 5 Sudoeste 20 Sur 2.6 -- -- 91
2019-01-22 20:00:00 6.2 6 Sudoeste 15 Oeste 0.8 -- -- 93
2019-01-22 19:00:00 6 5 Sudeste 23 Sudoeste 1.8 -- -- 96
2019-01-22 18:00:00 6.1 2 Noroeste 17 Oeste 1.4 -- -- 95
2019-01-22 17:00:00 6 6 Sudoeste 15 Sudoeste 2.4 -- -- 96
2019-01-22 16:00:00 6.2 4 Nordeste 28 Sudoeste 3.6 -- -- 96
2019-01-22 15:00:00 6.3 6 Sur 19 Sudoeste 3.8 -- -- 96
2019-01-22 14:00:00 6.4 6 Nordeste 32 Oeste 2.4 -- -- 96
2019-01-22 13:00:00 6.9 14 Sudoeste 36 Oeste 0.8 -- -- 87
2019-01-22 12:00:00 6 9 Sur 21 Sur 1.8 -- -- 96
2019-01-22 11:00:00 5.3 3 Noroeste 10 Noroeste 0.8 -- -- 100
2019-01-22 10:00:00 4.8 2 Norte 6 Norte 1 -- -- 100
2019-01-22 09:00:00 4.3 3 Sudoeste 8 Norte 0.4 -- -- 100
2019-01-22 08:00:00 4.2 0 Calma 7 Norte 0 -- -- 100
2019-01-22 07:00:00 3.9 0 Calma 6 Este 0 -- -- 100
2019-01-22 06:00:00 4 2 Noroeste 6 Sudeste 0 -- -- 100
2019-01-22 05:00:00 3.9 2 Sudeste 5 Este 0.2 -- -- 100
2019-01-22 04:00:00 4.1 0 Calma 6 Este 0 -- -- 100
2019-01-22 03:00:00 4.3 0 Calma 8 Noroeste 0 -- -- 100
2019-01-22 02:00:00 4.5 0 Calma 4 Sudoeste 0 -- -- 100
2019-01-22 01:00:00 4.6 2 Sur 6 Sudeste 0 -- -- 100
2019-01-22 00:00:00 4.6 3 Sur 5 Sur 0 -- -- 100
2019-01-21 23:00:00 4.7 4 Sudeste 8 Sudoeste 1.8 -- -- 98
2019-01-21 22:00:00 4.6 3 Sudoeste 5 Sudeste 0.2 -- -- 98
2019-01-21 21:00:00 4.8 3 Sudoeste 5 Sudoeste 0 -- -- 96
2019-01-21 20:00:00 5.5 0 Calma 11 Noroeste 0 -- -- 91
2019-01-21 19:00:00 6.3 3 Noroeste 13 Noroeste 0 -- -- 77
2019-01-21 18:00:00 6.6 4 Noroeste 15 Noroeste 0 -- -- 81
2019-01-21 17:00:00 7.3 2 Nordeste 11 Noroeste 0 -- -- 80
2019-01-21 16:00:00 7.2 8 Noroeste 19 Noroeste 0 -- -- 90
2019-01-21 15:00:00 7.4 4 Sudoeste 9 Sudoeste 0 -- -- 93
2019-01-21 14:00:00 6.7 5 Oeste 13 Noroeste 0 -- -- 94
2019-01-21 13:00:00 6.7 6 Norte 16 Norte 0 -- -- 93
2019-01-21 12:00:00 6.1 4 Noroeste 13 Noroeste 0 -- -- 93
2019-01-21 11:00:00 6 6 Noroeste 21 Noroeste 0.6 -- -- 94
2019-01-21 10:00:00 5.9 9 Norte 19 Oeste 0.6 -- -- 100
2019-01-21 09:00:00 5.3 2 Sudoeste 7 Nordeste 0.2 -- -- 100
2019-01-21 08:00:00 5.3 3 Sur 8 Este 0 -- -- 100
2019-01-21 07:00:00 5.3 3 Sudeste 6 Sudeste 1.2 -- -- 100
2019-01-21 06:00:00 5.3 0 Calma 6 Noroeste 1.6 -- -- 100
2019-01-21 05:00:00 5.4 0 Calma 5 Sudeste 0.2 -- -- 99
2019-01-21 04:00:00 5.7 3 Sur 14 Norte 3 -- -- 99
2019-01-21 03:00:00 6 0 Calma 18 Nordeste 0.8 -- -- 98
2019-01-21 02:00:00 6.2 2 Sudoeste 5 Sudoeste 0 -- -- 99
2019-01-21 01:00:00 6.5 4 Sudoeste 11 Oeste 1 -- -- 97
2019-01-21 00:00:00 6.8 2 Sur 6 Sudoeste 0 -- -- 100
2019-01-20 23:00:00 7.1 0 Calma 8 Oeste 0.6 -- -- 97
2019-01-20 22:00:00 7 4 Oeste 14 Nordeste 1.6 -- -- 98
2019-01-20 21:00:00 7.1 5 Sudoeste 13 Noroeste 1 -- -- 97
2019-01-20 20:00:00 7.4 6 Oeste 12 Noroeste 0.8 -- -- 95
2019-01-20 19:00:00 7.3 2 Sur 32 Norte 2.2 -- -- 96
2019-01-20 18:00:00 8.8 8 Noroeste 28 Noroeste 0.6 -- -- 90
2019-01-20 17:00:00 8.5 5 Oeste 18 Oeste 0.2 -- -- 90
2019-01-20 16:00:00 8.6 8 Sudoeste 24 Sudoeste 0.2 -- -- 90
2019-01-20 15:00:00 9.4 4 Noroeste 15 Norte 0.2 -- -- 93
2019-01-20 14:00:00 8.5 3 Sudoeste 13 Oeste 3 -- -- 96
2019-01-20 13:00:00 8.8 5 Sudoeste 13 Sur 1.2 -- -- 98
2019-01-20 12:00:00 7.9 2 Sur 26 Norte 0.8 -- -- 98
2019-01-20 11:00:00 7.5 6 Noroeste 26 Norte 3.4 -- -- 89
2019-01-20 10:00:00 6.9 4 Sudoeste 13 Norte 0.2 -- -- 99
2019-01-20 09:00:00 6.1 2 Sudoeste 5 Sudoeste 0.2 -- -- 100
2019-01-20 08:00:00 6.1 3 Este 10 Norte 2 -- -- 99
2019-01-20 07:00:00 6.2 0 Calma 4 Norte 0 -- -- 97
2019-01-20 06:00:00 6.4 0 Calma 8 Este 0 -- -- 94
2019-01-20 05:00:00 6.5 2 Norte 11 Este 0 -- -- 92
2019-01-20 04:00:00 6.5 3 Nordeste 6 Este 0 -- -- 96
2019-01-20 03:00:00 6.7 0 Calma 5 Nordeste 0.4 -- -- 95
2019-01-20 02:00:00 7.3 4 Noroeste 8 Norte 0 -- -- 92
2019-01-20 01:00:00 8.2 3 Este 14 Este 0 -- -- 79
2019-01-20 00:00:00 8.7 9 Sudeste 28 Sudeste 0 -- -- 74
2019-01-19 23:00:00 9 9 Sur 23 Sudeste 0 -- -- 72
2019-01-19 22:00:00 9.2 14 Sur 31 Sudeste 0 -- -- 72
2019-01-19 21:00:00 9.5 14 Sudeste 35 Sudeste 0 -- -- 69
2019-01-19 20:00:00 9.8 11 Sudeste 21 Sudeste 0 -- -- 66
2019-01-19 19:00:00 9.9 6 Sudeste 26 Sur 0 -- -- 64
2019-01-19 18:00:00 10.2 11 Sur 27 Sudeste 0 -- -- 62
2019-01-19 17:00:00 10.2 11 Sudeste 32 Sur 0 -- -- 63
2019-01-19 16:00:00 10.5 13 Sur 33 Sudoeste 0 -- -- 64
2019-01-19 15:00:00 11 8 Este 22 Este 0.2 -- -- 67
2019-01-19 14:00:00 11.2 5 Sudeste 22 Sudeste 0 -- -- 64
2019-01-19 13:00:00 11.7 10 Sudeste 19 Sudeste 0 -- -- 60
2019-01-19 12:00:00 11.1 0 Calma 5 Sudoeste 0 -- -- 82
2019-01-19 11:00:00 8.4 3 Norte 8 Noroeste 0 -- -- 100
2019-01-19 10:00:00 6.5 3 Noroeste 6 Norte 0 -- -- 100
2019-01-19 09:00:00 5.8 4 Noroeste 12 Norte 0 -- -- 100
2019-01-19 08:00:00 5.9 4 Norte 10 Norte 0 -- -- 100
2019-01-19 07:00:00 5.9 4 Norte 11 Norte 0 -- -- 100
2019-01-19 06:00:00 5.7 3 Norte 10 Norte 0 -- -- 100
2019-01-19 05:00:00 5.6 2 Norte 8 Nordeste 0.2 -- -- 100
2019-01-19 04:00:00 5.4 2 Norte 8 Noroeste 0.2 -- -- 100
2019-01-19 03:00:00 5 0 Calma 6 Norte 0 -- -- 100
2019-01-19 02:00:00 5 3 Noroeste 12 Norte 1.2 -- -- 100
2019-01-19 01:00:00 4.9 2 Norte 6 Norte 0.4 -- -- 99
2019-01-19 00:00:00 5.2 0 Calma 9 Noroeste 0 -- -- 96